createdAt,value
2023-11-01T00:00:30.047Z,2.25
2023-11-01T00:03:00.262Z,2.50
2023-11-01T00:05:27.122Z,2.50
2023-11-01T00:07:54.106Z,2.37
2023-11-01T00:10:20.866Z,2.30
2023-11-01T00:12:47.647Z,2.20
2023-11-01T00:15:14.352Z,2.55
2023-11-01T00:17:41.208Z,2.45
2023-11-01T00:20:11.565Z,2.25
2023-11-01T00:22:38.301Z,2.25
2023-11-01T00:25:05.409Z,2.15
2023-11-01T00:27:32.326Z,2.53
2023-11-01T00:30:01.166Z,2.67
2023-11-01T00:32:28.037Z,2.55
2023-11-01T00:34:54.866Z,2.17
2023-11-01T00:37:21.615Z,2.40
2023-11-01T00:39:48.482Z,2.30
2023-11-01T00:42:15.255Z,2.30
2023-11-01T00:44:42.024Z,2.47
2023-11-01T00:47:08.820Z,2.30
2023-11-01T00:49:35.487Z,1.80
2023-11-01T00:52:04.547Z,2.35
2023-11-01T00:54:31.269Z,2.10
2023-11-01T00:56:57.981Z,2.25
2023-11-01T00:59:25.176Z,2.05
2023-11-01T01:01:52.760Z,2.20
2023-11-01T01:04:19.539Z,2.03
2023-11-01T01:06:46.240Z,2.20
2023-11-01T01:09:13.012Z,2.10
2023-11-01T01:11:43.493Z,1.92
2023-11-01T01:14:10.333Z,2.33
2023-11-01T01:16:37.081Z,2.10
2023-11-01T01:19:04.649Z,2.30
2023-11-01T01:21:31.363Z,2.10
2023-11-01T01:23:58.395Z,2.10
2023-11-01T01:26:25.900Z,1.90
2023-11-01T01:28:52.686Z,2.30
2023-11-01T01:31:19.444Z,2.40
2023-11-01T01:33:46.208Z,2.30
2023-11-01T01:36:13.214Z,2.05
2023-11-01T01:38:40.233Z,1.70
2023-11-01T01:41:07.206Z,1.80
2023-11-01T01:43:34.434Z,2.20
2023-11-01T01:46:08.906Z,1.90
2023-11-01T01:48:37.185Z,1.80
2023-11-01T01:51:06.265Z,1.83
2023-11-01T01:53:34.435Z,2.10
2023-11-01T01:56:01.612Z,2.37
2023-11-01T01:58:29.117Z,1.70
2023-11-01T02:00:57.720Z,1.90
2023-11-01T02:03:24.853Z,1.90
2023-11-01T02:05:53.150Z,1.92
2023-11-01T02:08:23.482Z,1.77
2023-11-01T02:10:50.309Z,1.85
2023-11-01T02:13:17.334Z,2.03
2023-11-01T02:15:46.160Z,1.70
2023-11-01T02:18:13.658Z,1.87
2023-11-01T02:20:47.056Z,1.70
2023-11-01T02:23:14.516Z,1.90
2023-11-01T02:25:42.936Z,1.80
2023-11-01T02:28:14.393Z,2.00
2023-11-01T02:30:41.109Z,1.55
2023-11-01T02:33:07.976Z,1.77
2023-11-01T02:35:34.919Z,1.77
2023-11-01T02:38:01.628Z,1.80
2023-11-01T02:40:28.314Z,1.80
2023-11-01T02:42:55.045Z,1.62
2023-11-01T02:45:21.948Z,1.70
2023-11-01T02:47:49.131Z,1.73
2023-11-01T02:50:17.519Z,1.83
2023-11-01T02:52:45.066Z,1.70
2023-11-01T02:55:13.553Z,1.85
2023-11-01T02:57:40.816Z,1.87
2023-11-01T03:00:09.930Z,1.50
2023-11-01T03:02:37.454Z,1.40
2023-11-01T03:05:05.257Z,1.83
2023-11-01T03:07:32.341Z,1.90
2023-11-01T03:10:01.635Z,1.87
2023-11-01T03:12:28.318Z,1.80
2023-11-01T03:14:55.117Z,1.70
2023-11-01T03:17:22.029Z,1.73
2023-11-01T03:19:49.026Z,1.70
2023-11-01T03:22:15.729Z,2.00
2023-11-01T03:24:42.402Z,1.92
2023-11-01T03:27:09.146Z,1.48
2023-11-01T03:29:35.859Z,1.90
2023-11-01T03:32:08.322Z,1.40
2023-11-01T03:34:35.162Z,1.40
2023-11-01T03:37:02.593Z,1.58
2023-11-01T03:39:29.289Z,1.55
2023-11-01T03:41:57.006Z,1.75
2023-11-01T03:44:23.734Z,1.55
2023-11-01T03:46:50.488Z,1.50
2023-11-01T03:49:17.233Z,1.48
2023-11-01T03:51:43.930Z,1.62
2023-11-01T03:54:10.587Z,1.65
2023-11-01T03:56:43.219Z,1.60
2023-11-01T03:59:10.018Z,1.45
2023-11-01T04:01:37.025Z,1.60
2023-11-01T04:04:07.306Z,1.45
2023-11-01T04:06:34.083Z,1.60
2023-11-01T04:09:02.029Z,1.60
2023-11-01T04:11:28.837Z,1.50
2023-11-01T04:13:55.542Z,1.30
2023-11-01T04:16:25.828Z,1.40
2023-11-01T04:18:52.625Z,1.35
2023-11-01T04:21:19.300Z,1.42
2023-11-01T04:23:46.052Z,1.55
2023-11-01T04:26:12.921Z,1.50
2023-11-01T04:28:42.787Z,1.60
2023-11-01T04:31:09.429Z,1.42
2023-11-01T04:33:38.984Z,1.60
2023-11-01T04:36:06.093Z,1.35
2023-11-01T04:38:32.885Z,1.20
2023-11-01T04:40:59.874Z,1.33
2023-11-01T04:43:30.073Z,1.40
2023-11-01T04:45:56.886Z,1.65
2023-11-01T04:48:23.632Z,1.30
2023-11-01T04:50:50.508Z,1.40
2023-11-01T04:53:17.635Z,1.42
2023-11-01T04:55:46.880Z,1.45
2023-11-01T04:58:15.007Z,1.33
2023-11-01T05:00:42.000Z,1.30
2023-11-01T05:03:08.898Z,1.48
2023-11-01T05:05:35.699Z,1.40
2023-11-01T05:08:02.434Z,1.30
2023-11-01T05:10:29.215Z,1.25
2023-11-01T05:12:55.904Z,1.30
2023-11-01T05:15:22.588Z,1.08
2023-11-01T05:17:49.446Z,1.40
2023-11-01T05:20:19.073Z,1.27
2023-11-01T05:22:45.818Z,1.40
2023-11-01T05:25:12.569Z,1.30
2023-11-01T05:27:39.294Z,1.35
2023-11-01T05:30:06.779Z,1.30
2023-11-01T05:32:33.497Z,1.52
2023-11-01T05:35:03.560Z,1.40
2023-11-01T05:37:30.281Z,1.40
2023-11-01T05:39:57.084Z,1.27
2023-11-01T05:42:23.844Z,1.30
2023-11-01T05:44:50.628Z,1.27
2023-11-01T05:47:17.725Z,1.30
2023-11-01T05:49:44.555Z,1.50
2023-11-01T05:52:11.286Z,1.20
2023-11-01T05:54:38.010Z,1.37
2023-11-01T05:57:07.788Z,1.40
2023-11-01T05:59:34.724Z,1.40
2023-11-01T06:02:02.096Z,1.50
2023-11-01T06:04:28.839Z,1.30
2023-11-01T06:06:55.852Z,1.50
2023-11-01T06:09:22.518Z,2.10
2023-11-01T06:11:49.350Z,1.48
2023-11-01T06:14:16.114Z,1.58
2023-11-01T06:16:42.990Z,1.67
2023-11-01T06:19:09.683Z,4.25
2023-11-01T06:21:36.451Z,54.00
2023-11-01T06:24:03.214Z,135.27
2023-11-01T06:26:30.061Z,148.40
2023-11-01T06:28:56.966Z,309.27
2023-11-01T06:31:23.764Z,168.25
2023-11-01T06:33:50.558Z,76.75
2023-11-01T06:36:17.368Z,55.97
2023-11-01T06:38:44.220Z,45.05
2023-11-01T06:41:10.967Z,60.67
2023-11-01T06:43:37.723Z,45.33
2023-11-01T06:46:08.209Z,44.05
2023-11-01T06:48:38.460Z,64.80
2023-11-01T06:51:06.106Z,132.70
2023-11-01T06:53:35.952Z,141.05
2023-11-01T06:56:02.700Z,135.23
2023-11-01T06:58:35.690Z,128.77
2023-11-01T07:03:30.353Z,123.40
2023-11-01T07:05:57.256Z,123.82
2023-11-01T07:08:30.973Z,115.00
2023-11-01T07:10:58.817Z,111.40
2023-11-01T07:13:27.785Z,106.45
2023-11-01T07:16:02.373Z,93.43
2023-11-01T07:18:29.849Z,57.17
2023-11-01T07:20:57.288Z,76.07
2023-11-01T07:23:28.040Z,68.70
2023-11-01T07:25:57.959Z,73.32
2023-11-01T07:28:24.819Z,70.15
2023-11-01T07:30:51.616Z,70.47
2023-11-01T07:33:18.891Z,72.50
2023-11-01T07:35:45.739Z,67.35
2023-11-01T07:38:15.439Z,64.95
2023-11-01T07:40:46.462Z,62.42
2023-11-01T07:43:20.436Z,62.03
2023-11-01T07:45:50.695Z,59.35
2023-11-01T07:48:23.179Z,54.83
2023-11-01T07:50:54.657Z,56.22
2023-11-01T07:53:21.542Z,52.17
2023-11-01T07:55:50.429Z,50.90
2023-11-01T07:58:18.928Z,51.22
2023-11-01T08:00:45.764Z,49.88
2023-11-01T08:03:12.593Z,48.72
2023-11-01T08:05:42.180Z,46.50
2023-11-01T08:08:10.228Z,46.88
2023-11-01T08:10:37.136Z,43.97
2023-11-01T08:13:04.146Z,46.22
2023-11-01T08:15:33.572Z,48.33
2023-11-01T08:18:06.266Z,49.20
2023-11-01T08:20:33.132Z,38.78
2023-11-01T08:23:06.158Z,37.78
2023-11-01T08:28:01.861Z,38.30
2023-11-01T08:30:31.986Z,38.45
2023-11-01T08:32:59.298Z,36.50
2023-11-01T08:35:31.702Z,37.03
2023-11-01T08:37:58.843Z,35.63
2023-11-01T08:40:25.913Z,35.17
2023-11-01T08:42:55.715Z,35.20
2023-11-01T08:45:28.435Z,33.78
2023-11-01T08:47:55.449Z,33.35
2023-11-01T08:50:25.246Z,32.38
2023-11-01T08:52:52.046Z,31.48
2023-11-01T08:55:21.419Z,32.90
2023-11-01T08:57:48.506Z,31.17
2023-11-01T09:00:26.681Z,24.90
2023-11-01T09:02:58.928Z,28.55
2023-11-01T09:05:25.851Z,30.25
2023-11-01T09:07:53.150Z,30.27
2023-11-01T09:10:19.905Z,27.92
2023-11-01T09:12:47.851Z,28.20
2023-11-01T09:15:14.607Z,27.98
2023-11-01T09:17:41.570Z,26.75
2023-11-01T09:20:13.316Z,24.40
2023-11-01T09:22:44.209Z,26.80
2023-11-01T09:25:13.971Z,25.35
2023-11-01T09:27:41.465Z,26.80
2023-11-01T09:30:14.633Z,26.67
2023-11-01T09:32:45.227Z,26.92
2023-11-01T09:35:16.036Z,25.73
2023-11-01T09:37:46.363Z,26.17
2023-11-01T09:40:16.631Z,25.90
2023-11-01T09:42:47.088Z,25.08
2023-11-01T09:45:22.040Z,23.95
2023-11-01T09:47:56.865Z,22.85
2023-11-01T09:50:26.921Z,22.05
2023-11-01T09:52:59.806Z,22.15
2023-11-01T09:55:28.967Z,22.48
2023-11-01T09:58:00.107Z,21.85
2023-11-01T10:00:30.979Z,23.05
2023-11-01T10:03:01.750Z,21.95
2023-11-01T10:05:31.431Z,21.58
2023-11-01T10:08:03.891Z,22.85
2023-11-01T10:10:39.272Z,20.83
2023-11-01T10:13:13.005Z,20.62
2023-11-01T10:15:40.473Z,21.33
2023-11-01T10:18:10.751Z,20.75
2023-11-01T10:20:41.681Z,20.95
2023-11-01T10:23:12.325Z,20.55
2023-11-01T10:25:39.306Z,20.85
2023-11-01T10:28:18.436Z,20.62
2023-11-01T10:30:52.277Z,19.73
2023-11-01T10:33:20.325Z,17.92
2023-11-01T10:36:04.092Z,18.75
2023-11-01T10:38:35.696Z,20.67
2023-11-01T10:41:03.658Z,20.05
2023-11-01T10:43:32.468Z,18.55
2023-11-01T10:46:01.514Z,19.25
2023-11-01T10:48:34.535Z,18.27
2023-11-01T10:51:06.054Z,18.40
2023-11-01T10:53:36.970Z,18.67
2023-11-01T10:56:04.503Z,17.42
2023-11-01T10:58:40.581Z,17.62
2023-11-01T11:01:30.286Z,17.62
2023-11-01T11:04:08.751Z,17.52
2023-11-01T11:06:55.488Z,17.45
2023-11-01T11:12:21.306Z,17.42
2023-11-01T11:14:51.683Z,15.88
2023-11-01T11:17:20.561Z,14.93
2023-11-01T11:20:15.171Z,15.73
2023-11-01T11:23:03.772Z,14.57
2023-11-01T11:25:50.591Z,13.65
2023-11-01T11:28:20.332Z,14.70
2023-11-01T11:31:00.035Z,14.87
2023-11-01T11:33:48.244Z,13.65
2023-11-01T11:36:19.589Z,14.18
2023-11-01T11:38:53.834Z,13.88
2023-11-01T11:41:21.944Z,13.55
2023-11-01T11:44:12.589Z,12.93
2023-11-01T11:46:48.243Z,13.62
2023-11-01T11:49:20.845Z,13.00
2023-11-01T11:51:58.614Z,11.93
2023-11-01T11:54:31.014Z,12.48
2023-11-01T11:57:08.783Z,12.52
2023-11-01T11:59:36.719Z,11.77
2023-11-01T12:02:08.352Z,12.23
2023-11-01T12:04:38.609Z,11.73
2023-11-01T12:07:09.289Z,11.80
2023-11-01T12:09:36.892Z,11.75
2023-11-01T12:12:11.571Z,11.98
2023-11-01T12:14:43.793Z,11.55
2023-11-01T12:17:12.496Z,11.77
2023-11-01T12:19:51.325Z,11.60
2023-11-01T12:22:21.362Z,11.10
2023-11-01T12:24:49.887Z,10.77
2023-11-01T12:27:44.338Z,9.02
2023-11-01T12:30:21.554Z,9.40
2023-11-01T12:32:50.630Z,7.65
2023-11-01T12:35:21.078Z,7.90
2023-11-01T12:37:50.838Z,8.50
2023-11-01T12:40:20.838Z,8.45
2023-11-01T12:42:50.051Z,7.95
2023-11-01T12:45:18.399Z,8.27
2023-11-01T12:47:50.460Z,7.40
2023-11-01T12:50:36.223Z,7.15
2023-11-01T12:53:03.982Z,7.30
2023-11-01T12:55:30.784Z,7.18
2023-11-01T12:57:57.840Z,6.72
2023-11-01T13:00:28.906Z,6.95
2023-11-01T13:02:55.807Z,6.90
2023-11-01T13:05:22.626Z,6.20
2023-11-01T13:07:54.274Z,6.25
2023-11-01T13:10:21.133Z,6.00
2023-11-01T13:12:49.089Z,6.10
2023-11-01T13:15:17.610Z,5.18
2023-11-01T13:17:45.001Z,5.28
2023-11-01T13:20:14.602Z,5.12
2023-11-01T13:22:41.370Z,5.28
2023-11-01T13:25:08.261Z,5.03
2023-11-01T13:27:38.557Z,4.90
2023-11-01T13:30:06.863Z,4.57
2023-11-01T13:32:34.570Z,4.70
2023-11-01T13:35:02.143Z,4.78
2023-11-01T13:37:32.627Z,4.85
2023-11-01T13:40:04.962Z,4.72
2023-11-01T13:42:31.742Z,4.15
2023-11-01T13:44:59.644Z,3.78
2023-11-01T13:47:32.042Z,3.80
2023-11-01T13:50:00.880Z,4.05
2023-11-01T13:52:30.642Z,4.30
2023-11-01T13:55:03.371Z,3.97
2023-11-01T13:57:37.247Z,4.05
2023-11-01T14:00:07.800Z,3.42
2023-11-01T14:02:36.082Z,4.20
2023-11-01T14:05:03.794Z,3.83
2023-11-01T14:07:31.372Z,4.25
2023-11-01T14:09:58.545Z,3.67
2023-11-01T14:12:29.514Z,4.10
2023-11-01T14:14:59.537Z,3.50
2023-11-01T14:17:27.354Z,4.00
2023-11-01T14:19:54.607Z,4.10
2023-11-01T14:22:22.179Z,4.40
2023-11-01T14:24:51.292Z,4.12
2023-11-01T14:27:18.753Z,3.55
2023-11-01T14:29:45.694Z,3.42
2023-11-01T14:32:12.503Z,4.03
2023-11-01T14:34:39.664Z,4.30
2023-11-01T14:37:14.255Z,5.18
2023-11-01T14:39:41.093Z,4.32
2023-11-01T14:42:12.183Z,5.37
2023-11-01T14:44:39.252Z,4.75
2023-11-01T14:47:09.855Z,5.68
2023-11-01T14:49:36.898Z,6.10
2023-11-01T14:52:03.901Z,6.47
2023-11-01T14:54:31.207Z,6.85
2023-11-01T14:56:57.953Z,6.80
2023-11-01T14:59:24.970Z,5.90
2023-11-01T15:01:51.930Z,6.25
2023-11-01T15:04:18.688Z,6.47
2023-11-01T15:06:45.852Z,6.62
2023-11-01T15:09:16.604Z,6.80
2023-11-01T15:12:14.467Z,6.00
2023-11-01T15:14:43.745Z,5.60
2023-11-01T15:22:34.475Z,6.35
2023-11-01T15:25:03.105Z,6.50
2023-11-01T15:27:30.160Z,6.10
2023-11-01T15:29:59.515Z,6.30
2023-11-01T15:32:26.303Z,5.37
2023-11-01T15:34:53.138Z,6.15
2023-11-01T15:37:21.498Z,5.82
2023-11-01T15:39:50.811Z,6.22
2023-11-01T15:42:20.509Z,5.68
2023-11-01T15:44:47.264Z,5.40
2023-11-01T15:47:16.286Z,5.78
2023-11-01T15:49:43.147Z,6.12
2023-11-01T15:52:09.964Z,5.65
2023-11-01T15:54:39.788Z,5.55
2023-11-01T15:57:06.758Z,5.00
2023-11-01T15:59:36.593Z,5.70
2023-11-01T16:02:04.088Z,5.00
2023-11-01T16:04:33.153Z,4.93
2023-11-01T16:07:00.062Z,4.97
2023-11-01T16:09:26.852Z,5.20
2023-11-01T16:11:53.818Z,5.32
2023-11-01T16:14:20.696Z,4.90
2023-11-01T16:16:47.632Z,4.82
2023-11-01T16:19:14.520Z,5.05
2023-11-01T16:21:44.961Z,5.35
2023-11-01T16:24:13.041Z,5.03
2023-11-01T16:26:47.128Z,5.07
2023-11-01T16:29:17.313Z,4.62
2023-11-01T16:31:44.183Z,4.62
2023-11-01T16:34:12.775Z,4.75
2023-11-01T16:36:39.621Z,4.78
2023-11-01T16:39:06.653Z,4.93
2023-11-01T16:41:33.463Z,4.72
2023-11-01T16:44:01.279Z,4.47
2023-11-01T16:51:45.858Z,4.90
2023-11-01T16:59:45.808Z,4.90
2023-11-01T17:04:50.694Z,4.80
2023-11-01T17:07:20.889Z,4.60
2023-11-01T17:09:58.143Z,4.12
2023-11-01T17:12:26.307Z,5.60
2023-11-01T17:14:54.200Z,4.22
2023-11-01T17:17:22.643Z,4.82
2023-11-01T17:19:53.571Z,5.20
2023-11-01T17:22:46.059Z,4.35
2023-11-01T17:25:37.911Z,4.40
2023-11-01T17:28:05.880Z,5.18
2023-11-01T17:30:33.485Z,4.50
2023-11-01T17:33:01.133Z,4.55
2023-11-01T17:35:42.286Z,4.80
2023-11-01T17:38:32.452Z,4.15
2023-11-01T17:41:02.123Z,4.50
2023-11-01T17:43:55.188Z,3.85
2023-11-01T17:46:25.394Z,4.07
2023-11-01T17:48:56.892Z,3.97
2023-11-01T17:51:31.540Z,4.40
2023-11-01T17:54:02.083Z,4.30
2023-11-01T17:56:29.379Z,3.90
2023-11-01T17:59:00.195Z,3.97
2023-11-01T18:01:27.358Z,4.05
2023-11-01T18:03:55.538Z,4.03
2023-11-01T18:06:26.740Z,4.03
2023-11-01T18:08:53.700Z,4.50
2023-11-01T18:11:20.542Z,3.85
2023-11-01T18:13:50.786Z,3.78
2023-11-01T18:16:30.947Z,4.20
2023-11-01T18:18:57.906Z,3.55
2023-11-01T18:21:31.900Z,3.90
2023-11-01T18:24:10.878Z,3.90
2023-11-01T18:26:40.724Z,3.75
2023-11-01T18:29:11.247Z,3.80
2023-11-01T18:31:43.899Z,4.07
2023-11-01T18:34:15.173Z,4.53
2023-11-01T18:36:47.037Z,3.60
2023-11-01T18:39:24.401Z,4.10
2023-11-01T18:41:57.547Z,4.20
2023-11-01T18:46:57.666Z,3.67
2023-11-01T18:49:36.477Z,4.03
2023-11-01T18:52:03.323Z,3.90
2023-11-01T18:54:41.513Z,3.78
2023-11-01T18:57:15.803Z,4.37
2023-11-01T18:59:44.632Z,4.12
2023-11-01T19:02:37.860Z,3.90
2023-11-01T19:05:11.944Z,3.83
2023-11-01T19:07:40.594Z,3.37
2023-11-01T19:10:12.722Z,3.55
2023-11-01T19:12:40.157Z,3.92
2023-11-01T19:15:47.872Z,3.70
2023-11-01T19:18:18.233Z,3.50
2023-11-01T19:20:46.567Z,4.18
2023-11-01T19:23:19.742Z,3.67
2023-11-01T19:25:50.043Z,3.70
2023-11-01T19:28:17.731Z,3.45
2023-11-01T19:30:44.665Z,3.45
2023-11-01T19:33:22.368Z,4.10
2023-11-01T19:35:59.151Z,4.43
2023-11-01T19:38:31.097Z,4.05
2023-11-01T19:40:57.907Z,4.05
2023-11-01T19:43:24.901Z,4.28
2023-11-01T19:45:51.917Z,3.75
2023-11-01T19:48:21.704Z,3.90
2023-11-01T19:50:48.663Z,3.70
2023-11-01T19:53:15.352Z,3.87
2023-11-01T19:55:42.372Z,3.70
2023-11-01T19:58:09.127Z,3.90
2023-11-01T20:00:35.834Z,4.28
2023-11-01T20:03:05.659Z,3.83
2023-11-01T20:05:35.009Z,4.50
2023-11-01T20:08:01.722Z,4.10
2023-11-01T20:10:28.508Z,4.43
2023-11-01T20:12:55.731Z,4.57
2023-11-01T20:15:22.695Z,4.30
2023-11-01T20:17:52.784Z,3.75
2023-11-01T20:20:20.916Z,4.37
2023-11-01T20:22:50.910Z,4.40
2023-11-01T20:25:18.118Z,4.18
2023-11-01T20:27:48.219Z,4.15
2023-11-01T20:30:18.452Z,4.07
2023-11-01T20:32:46.910Z,4.47
2023-11-01T20:35:16.245Z,3.97
2023-11-01T20:37:44.026Z,4.55
2023-11-01T20:40:24.509Z,4.18
2023-11-01T20:42:51.840Z,4.45
2023-11-01T20:45:20.274Z,4.25
2023-11-01T20:47:47.563Z,4.43
2023-11-01T20:50:14.915Z,4.15
2023-11-01T20:52:42.860Z,3.87
2023-11-01T20:55:10.256Z,4.25
2023-11-01T20:57:37.524Z,4.03
2023-11-01T21:00:05.667Z,4.03
2023-11-01T21:02:33.228Z,4.20
2023-11-01T21:05:03.268Z,4.00
2023-11-01T21:07:33.711Z,4.50
2023-11-01T21:10:06.041Z,3.87
2023-11-01T21:12:37.251Z,4.55
2023-11-01T21:15:07.823Z,3.97
2023-11-01T21:17:38.277Z,4.22
2023-11-01T21:20:10.098Z,3.42
2023-11-01T21:22:40.445Z,4.40
2023-11-01T21:25:14.793Z,4.00
2023-11-01T21:27:44.663Z,4.60
2023-11-01T21:30:12.927Z,4.03
2023-11-01T21:32:43.339Z,3.97
2023-11-01T21:35:14.907Z,4.07
2023-11-01T21:37:43.895Z,4.03
2023-11-01T21:40:17.874Z,3.72
2023-11-01T21:42:46.106Z,3.85
2023-11-01T21:45:20.318Z,4.05
2023-11-01T21:47:51.299Z,4.57
2023-11-01T21:50:48.961Z,4.32
2023-11-01T21:53:19.751Z,3.78
2023-11-01T21:56:01.451Z,4.22
2023-11-01T21:58:33.078Z,3.92
2023-11-01T22:01:09.231Z,3.62
2023-11-01T22:03:49.744Z,3.65
2023-11-01T22:06:29.270Z,3.78
2023-11-01T22:09:06.571Z,3.95
2023-11-01T22:11:40.955Z,3.42
2023-11-01T22:14:22.124Z,3.75
2023-11-01T22:16:52.627Z,3.72
2023-11-01T22:19:36.240Z,3.40
2023-11-01T22:22:24.765Z,3.83
2023-11-01T22:24:53.526Z,3.50
2023-11-01T22:27:38.116Z,3.58
2023-11-01T22:30:08.858Z,3.55
2023-11-01T22:32:42.833Z,3.85
2023-11-01T22:35:13.064Z,3.53
2023-11-01T22:37:43.968Z,3.70
2023-11-01T22:40:13.942Z,4.00
2023-11-01T22:42:42.785Z,3.47
2023-11-01T22:45:13.410Z,3.20
2023-11-01T22:47:41.326Z,3.47
2023-11-01T22:50:12.605Z,3.67
2023-11-01T22:52:46.096Z,2.80
2023-11-01T22:55:14.060Z,3.28
2023-11-01T22:57:44.055Z,3.12
2023-11-01T23:00:12.947Z,3.45
2023-11-01T23:02:45.995Z,3.40
2023-11-01T23:05:19.607Z,3.20
2023-11-01T23:07:49.519Z,3.22
2023-11-01T23:10:23.597Z,3.20
2023-11-01T23:12:58.462Z,3.15
2023-11-01T23:15:29.093Z,3.17
2023-11-01T23:18:02.466Z,3.33
2023-11-01T23:20:34.989Z,3.00
2023-11-01T23:23:02.550Z,3.60
2023-11-01T23:25:32.677Z,3.37
2023-11-01T23:28:19.271Z,3.12
2023-11-01T23:30:53.109Z,3.10
2023-11-01T23:33:49.275Z,3.08
2023-11-01T23:36:26.490Z,3.50
2023-11-01T23:38:56.330Z,3.40
2023-11-01T23:41:47.624Z,3.05
2023-11-01T23:44:17.294Z,3.00
2023-11-01T23:46:44.914Z,3.17
2023-11-01T23:52:31.924Z,2.87
2023-11-01T23:55:06.084Z,3.00
2023-11-01T23:57:40.035Z,2.80
